createdAt,value
2023-02-09T00:01:00.347Z,-5.92
2023-02-09T00:03:03.085Z,-5.93
2023-02-09T00:05:06.367Z,-5.92
2023-02-09T00:07:09.058Z,-5.92
2023-02-09T00:09:11.927Z,-5.91
2023-02-09T00:11:46.872Z,-5.90
2023-02-09T00:13:49.499Z,-5.88
2023-02-09T00:15:58.069Z,-5.91
2023-02-09T00:18:00.731Z,-5.86
2023-02-09T00:20:05.553Z,-5.83
2023-02-09T00:22:08.320Z,-5.84
2023-02-09T00:24:11.916Z,-5.81
2023-02-09T00:26:14.490Z,-5.82
2023-02-09T00:28:17.347Z,-5.82
2023-02-09T00:30:20.267Z,-5.82
2023-02-09T00:32:22.989Z,-5.79
2023-02-09T00:34:25.651Z,-5.77
2023-02-09T00:36:28.862Z,-5.79
2023-02-09T00:38:31.671Z,-5.81
2023-02-09T00:40:34.459Z,-5.83
2023-02-09T00:42:37.100Z,-5.82
2023-02-09T00:44:40.546Z,-5.82
2023-02-09T00:46:43.441Z,-5.82
2023-02-09T00:48:46.129Z,-5.86
2023-02-09T00:50:51.109Z,-5.92
2023-02-09T00:52:54.106Z,-5.94
2023-02-09T00:54:56.775Z,-5.96
2023-02-09T00:57:05.395Z,-5.99
2023-02-09T00:59:08.122Z,-6.04
2023-02-09T01:01:13.705Z,-6.04
2023-02-09T01:03:16.600Z,-6.07
2023-02-09T01:05:19.297Z,-6.08
2023-02-09T01:07:21.945Z,-6.11
2023-02-09T01:09:26.121Z,-6.15
2023-02-09T01:11:30.020Z,-6.17
2023-02-09T01:13:32.617Z,-6.19
2023-02-09T01:15:35.302Z,-6.17
2023-02-09T01:17:38.743Z,-6.19
2023-02-09T01:19:41.558Z,-6.14
2023-02-09T01:21:44.207Z,-6.14
2023-02-09T01:23:47.944Z,-6.16
2023-02-09T01:25:50.639Z,-6.14
2023-02-09T01:27:53.404Z,-6.13
2023-02-09T01:29:56.104Z,-6.15
2023-02-09T01:31:58.806Z,-6.18
2023-02-09T01:34:03.906Z,-6.13
2023-02-09T01:36:06.966Z,-6.11
2023-02-09T01:38:09.660Z,-6.05
2023-02-09T01:40:12.621Z,-5.99
2023-02-09T01:42:20.319Z,-5.94
2023-02-09T01:44:22.882Z,-5.89
2023-02-09T01:46:28.817Z,-5.82
2023-02-09T01:48:31.670Z,-5.82
2023-02-09T01:50:37.607Z,-5.84
2023-02-09T01:52:40.653Z,-5.75
2023-02-09T01:54:49.617Z,-5.76
2023-02-09T01:57:02.726Z,-5.77
2023-02-09T01:59:05.713Z,-5.76
2023-02-09T02:01:08.404Z,-5.79
2023-02-09T02:03:20.348Z,-5.72
2023-02-09T02:05:24.455Z,-5.77
2023-02-09T02:07:48.028Z,-5.75
2023-02-09T02:09:51.219Z,-5.74
2023-02-09T02:11:53.940Z,-5.71
2023-02-09T02:13:57.791Z,-5.72
2023-02-09T02:16:37.760Z,-5.61
2023-02-09T02:18:46.183Z,-5.56
2023-02-09T02:21:20.859Z,-5.58
2023-02-09T02:23:48.679Z,-5.61
2023-02-09T02:26:12.248Z,-5.56
2023-02-09T02:28:32.264Z,-5.52
2023-02-09T02:30:39.810Z,-5.48
2023-02-09T02:32:49.350Z,-5.52
2023-02-09T02:35:19.017Z,-5.57
2023-02-09T02:37:44.764Z,-5.62
2023-02-09T02:39:59.440Z,-5.68
2023-02-09T02:42:29.707Z,-5.71
2023-02-09T02:44:37.811Z,-5.75
2023-02-09T02:46:47.000Z,-5.70
2023-02-09T02:48:57.745Z,-5.66
2023-02-09T02:51:08.580Z,-5.64
2023-02-09T02:53:13.862Z,-5.61
2023-02-09T02:55:21.257Z,-5.63
2023-02-09T02:57:31.038Z,-5.66
2023-02-09T02:59:42.770Z,-5.66
2023-02-09T03:01:54.880Z,-5.66
2023-02-09T03:03:59.610Z,-5.68
2023-02-09T03:06:05.717Z,-5.72
2023-02-09T03:08:08.380Z,-5.72
2023-02-09T03:10:34.827Z,-5.77
2023-02-09T03:13:02.527Z,-5.76
2023-02-09T03:15:19.960Z,-5.79
2023-02-09T03:18:02.944Z,-5.82
2023-02-09T03:20:25.625Z,-5.78
2023-02-09T03:22:52.487Z,-5.76
2023-02-09T03:25:24.316Z,-5.75
2023-02-09T03:27:53.905Z,-5.75
2023-02-09T03:30:01.063Z,-5.71
2023-02-09T03:32:07.534Z,-5.65
2023-02-09T03:34:10.752Z,-5.59
2023-02-09T03:36:17.033Z,-5.53
2023-02-09T03:38:19.717Z,-5.48
2023-02-09T03:40:22.455Z,-5.46
2023-02-09T03:42:25.070Z,-5.46
2023-02-09T03:44:28.049Z,-5.42
2023-02-09T03:46:30.659Z,-5.36
2023-02-09T03:48:35.397Z,-5.33
2023-02-09T03:50:38.873Z,-5.34
2023-02-09T03:52:41.480Z,-5.35
2023-02-09T03:54:44.509Z,-5.41
2023-02-09T03:56:47.219Z,-5.48
2023-02-09T03:58:49.904Z,-5.50
2023-02-09T04:00:52.559Z,-5.51
2023-02-09T04:02:56.198Z,-5.54
2023-02-09T04:04:58.812Z,-5.55
2023-02-09T04:07:01.700Z,-5.58
2023-02-09T04:09:05.850Z,-5.54
2023-02-09T04:11:08.658Z,-5.52
2023-02-09T04:13:11.303Z,-5.53
2023-02-09T04:15:13.956Z,-5.61
2023-02-09T04:17:16.867Z,-5.56
2023-02-09T04:19:19.666Z,-5.57
2023-02-09T04:21:22.605Z,-5.55
2023-02-09T04:23:25.354Z,-5.50
2023-02-09T04:25:28.065Z,-5.52
2023-02-09T04:27:30.724Z,-5.49
2023-02-09T04:29:33.336Z,-5.46
2023-02-09T04:31:36.171Z,-5.38
2023-02-09T04:33:39.332Z,-5.32
2023-02-09T04:35:44.292Z,-5.27
2023-02-09T04:37:46.938Z,-5.23
2023-02-09T04:39:49.520Z,-5.15
2023-02-09T04:41:52.175Z,-5.10
2023-02-09T04:43:55.029Z,-5.06
2023-02-09T04:45:57.832Z,-5.02
2023-02-09T04:48:00.510Z,-4.99
2023-02-09T04:50:03.650Z,-4.94
2023-02-09T04:52:06.348Z,-4.92
2023-02-09T04:54:09.017Z,-4.87
2023-02-09T04:56:15.418Z,-4.80
2023-02-09T04:58:38.484Z,-4.78
2023-02-09T05:00:41.161Z,-4.75
2023-02-09T05:02:43.909Z,-4.78
2023-02-09T05:04:46.591Z,-4.83
2023-02-09T05:06:49.198Z,-4.91
2023-02-09T05:08:51.968Z,-4.92
2023-02-09T05:10:55.715Z,-4.89
2023-02-09T05:12:58.284Z,-4.83
2023-02-09T05:15:00.935Z,-4.80
2023-02-09T05:17:03.596Z,-4.75
2023-02-09T05:19:06.288Z,-4.70
2023-02-09T05:21:09.089Z,-4.75
2023-02-09T05:23:12.228Z,-4.73
2023-02-09T05:25:14.817Z,-4.69
2023-02-09T05:27:17.508Z,-4.65
2023-02-09T05:29:22.016Z,-4.60
2023-02-09T05:31:26.184Z,-4.56
2023-02-09T05:33:28.913Z,-4.53
2023-02-09T05:35:31.834Z,-4.49
2023-02-09T05:37:34.628Z,-4.39
2023-02-09T05:39:37.215Z,-4.33
2023-02-09T05:41:58.600Z,-4.27
2023-02-09T05:44:01.205Z,-4.20
2023-02-09T05:46:06.395Z,-4.18
2023-02-09T05:48:10.552Z,-4.18
2023-02-09T05:50:13.192Z,-4.19
2023-02-09T05:52:16.903Z,-4.36
2023-02-09T05:54:19.547Z,-4.37
2023-02-09T05:56:22.765Z,-4.32
2023-02-09T05:58:25.374Z,-4.28
2023-02-09T06:00:30.001Z,-4.19
2023-02-09T06:02:32.662Z,-4.30
2023-02-09T06:04:36.048Z,-4.37
2023-02-09T06:06:38.806Z,-4.35
2023-02-09T06:08:41.370Z,-4.30
2023-02-09T06:10:44.302Z,-4.28
2023-02-09T06:12:51.437Z,-4.22
2023-02-09T06:14:54.193Z,-4.18
2023-02-09T06:16:56.885Z,-4.15
2023-02-09T06:18:59.708Z,-4.11
2023-02-09T06:21:02.475Z,-4.07
2023-02-09T06:23:05.234Z,-4.18
2023-02-09T06:25:13.297Z,-4.21
2023-02-09T06:28:19.904Z,-4.21
2023-02-09T06:30:22.676Z,-4.28
2023-02-09T06:32:25.300Z,-4.29
2023-02-09T06:34:27.978Z,-4.40
2023-02-09T06:36:30.532Z,-4.30
2023-02-09T06:38:35.231Z,-4.27
2023-02-09T06:40:38.101Z,-4.20
2023-02-09T06:42:46.931Z,-4.13
2023-02-09T06:44:49.529Z,-4.12
2023-02-09T06:46:52.221Z,-4.05
2023-02-09T06:48:54.902Z,-4.13
2023-02-09T06:50:57.732Z,-4.12
2023-02-09T06:53:00.937Z,-4.04
2023-02-09T06:55:05.606Z,-3.93
2023-02-09T06:57:08.325Z,-3.91
2023-02-09T06:59:10.919Z,-3.80
2023-02-09T07:01:18.247Z,-3.76
2023-02-09T07:03:20.983Z,-3.65
2023-02-09T07:05:23.683Z,-3.61
2023-02-09T07:07:26.659Z,-3.67
2023-02-09T07:09:29.340Z,-3.67
2023-02-09T07:11:32.115Z,-3.68
2023-02-09T07:13:35.266Z,-3.65
2023-02-09T07:15:37.909Z,-3.65
2023-02-09T07:17:40.912Z,-3.57
2023-02-09T07:19:43.514Z,-3.49
2023-02-09T07:21:46.073Z,-3.49
2023-02-09T07:23:49.979Z,-3.40
2023-02-09T07:25:53.147Z,-3.28
2023-02-09T07:27:55.936Z,-3.11
2023-02-09T07:30:00.795Z,-3.11
2023-02-09T07:32:07.703Z,-2.98
2023-02-09T07:34:10.360Z,-2.85
2023-02-09T07:36:15.704Z,-2.68
2023-02-09T07:38:18.448Z,-2.53
2023-02-09T07:40:21.240Z,-2.43
2023-02-09T07:42:23.933Z,-2.26
2023-02-09T07:44:27.615Z,-2.16
2023-02-09T07:46:30.279Z,-2.14
2023-02-09T07:48:34.027Z,-2.12
2023-02-09T07:50:36.684Z,-2.07
2023-02-09T07:52:39.373Z,-2.05
2023-02-09T07:54:42.011Z,-1.95
2023-02-09T07:56:44.651Z,-1.90
2023-02-09T07:58:47.398Z,-1.83
2023-02-09T08:00:51.444Z,-1.86
2023-02-09T08:02:56.485Z,-1.80
2023-02-09T08:05:00.898Z,-1.75
2023-02-09T08:07:04.058Z,-1.65
2023-02-09T08:09:07.919Z,-1.56
2023-02-09T08:11:11.672Z,-1.64
2023-02-09T08:13:15.426Z,-1.60
2023-02-09T08:15:21.401Z,-1.53
2023-02-09T08:17:26.158Z,-1.54
2023-02-09T08:19:30.171Z,-1.49
2023-02-09T08:21:36.744Z,-1.39
2023-02-09T08:23:41.628Z,-1.47
2023-02-09T08:25:51.990Z,-1.45
2023-02-09T08:27:59.023Z,-1.47
2023-02-09T08:30:05.278Z,-1.37
2023-02-09T08:32:13.320Z,-1.29
2023-02-09T08:34:16.808Z,-1.21
2023-02-09T08:36:20.938Z,-1.26
2023-02-09T08:38:38.433Z,-1.29
2023-02-09T08:40:46.912Z,-1.21
2023-02-09T08:42:50.711Z,-1.25
2023-02-09T08:44:55.338Z,-1.16
2023-02-09T08:46:59.051Z,-1.18
2023-02-09T08:49:02.119Z,-1.20
2023-02-09T08:51:06.958Z,-1.18
2023-02-09T08:53:10.568Z,-1.16
2023-02-09T08:55:28.968Z,-1.12
2023-02-09T08:57:44.357Z,-1.05
2023-02-09T08:59:51.326Z,-1.00
2023-02-09T09:01:56.018Z,-0.94
2023-02-09T09:03:59.848Z,-0.96
2023-02-09T09:06:07.902Z,-0.91
2023-02-09T09:08:10.540Z,-0.95
2023-02-09T09:10:13.911Z,-1.08
2023-02-09T09:12:16.596Z,-0.98
2023-02-09T09:14:19.192Z,-0.98
2023-02-09T09:16:23.321Z,-0.98
2023-02-09T09:18:26.493Z,-0.89
2023-02-09T09:20:29.196Z,-0.80
2023-02-09T09:22:31.820Z,-0.77
2023-02-09T09:24:40.664Z,-0.74
2023-02-09T09:26:43.601Z,-0.77
2023-02-09T09:28:51.182Z,-0.81
2023-02-09T09:30:53.934Z,-0.80
2023-02-09T09:32:56.693Z,-0.69
2023-02-09T09:34:59.991Z,-0.75
2023-02-09T09:37:02.634Z,-0.75
2023-02-09T09:39:05.322Z,-0.83
2023-02-09T09:41:24.666Z,-0.87
2023-02-09T09:43:39.872Z,-0.81
2023-02-09T09:45:42.958Z,-0.75
2023-02-09T09:47:45.828Z,-0.65
2023-02-09T09:49:49.518Z,-0.60
2023-02-09T09:52:31.822Z,-0.58
2023-02-09T09:54:36.395Z,-0.61
2023-02-09T09:56:39.206Z,-0.61
2023-02-09T09:58:43.998Z,-0.60
2023-02-09T10:00:46.933Z,-0.69
2023-02-09T10:02:49.648Z,-0.65
2023-02-09T10:04:52.466Z,-0.70
2023-02-09T10:07:02.360Z,-0.77
2023-02-09T10:09:15.233Z,-0.80
2023-02-09T10:11:29.188Z,-0.75
2023-02-09T10:13:40.551Z,-0.68
2023-02-09T10:15:51.281Z,-0.63
2023-02-09T10:17:57.641Z,-0.53
2023-02-09T10:20:08.156Z,-0.44
2023-02-09T10:22:13.984Z,-0.46
2023-02-09T10:24:26.359Z,-0.48
2023-02-09T10:26:31.967Z,-0.52
2023-02-09T10:28:48.077Z,-0.68
2023-02-09T10:30:57.526Z,-0.62
2023-02-09T10:33:02.771Z,-0.65
2023-02-09T10:35:43.127Z,-0.69
2023-02-09T10:37:46.478Z,-0.62
2023-02-09T10:40:01.385Z,-0.64
2023-02-09T10:42:34.490Z,-0.64
2023-02-09T10:44:40.229Z,-0.68
2023-02-09T10:46:43.051Z,-0.59
2023-02-09T10:48:47.296Z,-0.49
2023-02-09T10:51:07.400Z,-0.45
2023-02-09T10:53:24.654Z,-0.48
2023-02-09T10:55:37.578Z,-0.56
2023-02-09T10:57:40.286Z,-0.51
2023-02-09T10:59:42.849Z,-0.67
2023-02-09T11:01:56.817Z,-0.72
2023-02-09T11:04:06.233Z,-0.73
2023-02-09T11:06:20.176Z,-0.66
2023-02-09T11:08:24.790Z,-0.53
2023-02-09T11:10:38.290Z,-0.59
2023-02-09T11:12:41.003Z,-0.58
2023-02-09T11:14:43.858Z,-0.60
2023-02-09T11:17:00.889Z,-0.58
2023-02-09T11:19:15.403Z,-0.58
2023-02-09T11:21:45.771Z,-0.60
2023-02-09T11:24:07.349Z,-0.62
2023-02-09T11:26:46.427Z,-0.59
2023-02-09T11:29:01.599Z,-0.69
2023-02-09T11:31:24.181Z,-0.81
2023-02-09T11:33:42.132Z,-0.82
2023-02-09T11:36:15.644Z,-1.00
2023-02-09T11:38:27.722Z,-1.14
2023-02-09T11:40:45.279Z,-1.20
2023-02-09T11:43:11.519Z,-1.18
2023-02-09T11:45:20.260Z,-1.09
2023-02-09T11:47:42.324Z,-1.07
2023-02-09T11:49:49.366Z,-1.07
2023-02-09T11:51:55.888Z,-1.19
2023-02-09T11:54:04.275Z,-1.28
2023-02-09T11:56:11.804Z,-1.32
2023-02-09T11:58:47.675Z,-1.38
2023-02-09T12:01:10.027Z,-1.38
2023-02-09T12:03:17.265Z,-1.53
2023-02-09T12:05:21.608Z,-1.59
2023-02-09T12:07:48.951Z,-1.60
2023-02-09T12:10:25.376Z,-1.61
2023-02-09T12:12:49.655Z,-1.58
2023-02-09T12:15:23.025Z,-1.70
2023-02-09T12:17:38.583Z,-1.70
2023-02-09T12:19:46.731Z,-1.74
2023-02-09T12:21:49.353Z,-1.80
2023-02-09T12:23:51.960Z,-1.89
2023-02-09T12:25:55.804Z,-1.92
2023-02-09T12:28:37.153Z,-1.94
2023-02-09T12:30:42.816Z,-1.96
2023-02-09T12:32:45.604Z,-1.99
2023-02-09T12:34:51.355Z,-2.10
2023-02-09T12:37:13.446Z,-2.24
2023-02-09T12:39:23.724Z,-2.21
2023-02-09T12:41:28.674Z,-2.19
2023-02-09T12:43:33.456Z,-2.21
2023-02-09T12:45:38.442Z,-2.26
2023-02-09T12:47:57.183Z,-2.38
2023-02-09T12:50:04.781Z,-2.41
2023-02-09T12:52:17.399Z,-2.36
2023-02-09T12:54:41.815Z,-2.37
2023-02-09T12:56:44.554Z,-2.42
2023-02-09T12:58:49.889Z,-2.42
2023-02-09T13:00:55.434Z,-2.43
2023-02-09T13:03:10.910Z,-2.47
2023-02-09T13:05:22.679Z,-2.58
2023-02-09T13:07:33.175Z,-2.68
2023-02-09T13:09:39.512Z,-2.67
2023-02-09T13:11:52.103Z,-2.73
2023-02-09T13:14:04.448Z,-2.72
2023-02-09T13:16:37.264Z,-2.73
2023-02-09T13:18:45.903Z,-2.86
2023-02-09T13:21:06.201Z,-2.88
2023-02-09T13:23:34.203Z,-2.86
2023-02-09T13:25:39.699Z,-2.82
2023-02-09T13:27:49.940Z,-2.83
2023-02-09T13:29:57.791Z,-2.90
2023-02-09T13:32:28.632Z,-2.90
2023-02-09T13:35:01.450Z,-2.90
2023-02-09T13:37:23.289Z,-2.85
2023-02-09T13:39:27.417Z,-2.87
2023-02-09T13:41:38.148Z,-2.92
2023-02-09T13:43:41.748Z,-2.92
2023-02-09T13:45:53.381Z,-2.96
2023-02-09T13:47:59.488Z,-2.99
2023-02-09T13:50:03.847Z,-3.03
2023-02-09T13:52:22.365Z,-3.07
2023-02-09T13:54:24.924Z,-3.08
2023-02-09T13:56:46.497Z,-3.11
2023-02-09T13:58:49.695Z,-3.11
2023-02-09T14:00:56.090Z,-3.11
2023-02-09T14:03:12.488Z,-3.14
2023-02-09T14:05:27.626Z,-3.21
2023-02-09T14:07:35.288Z,-3.15
2023-02-09T14:09:56.825Z,-3.22
2023-02-09T14:12:45.718Z,-3.26
2023-02-09T14:15:15.034Z,-3.38
2023-02-09T14:17:28.544Z,-3.37
2023-02-09T14:19:32.402Z,-3.41
2023-02-09T14:21:40.654Z,-3.44
2023-02-09T14:24:05.442Z,-3.44
2023-02-09T14:26:24.569Z,-3.46
2023-02-09T14:28:27.275Z,-3.46
2023-02-09T14:30:32.911Z,-3.51
2023-02-09T14:32:38.370Z,-3.58
2023-02-09T14:34:41.020Z,-3.64
2023-02-09T14:36:52.502Z,-3.64
2023-02-09T14:39:10.922Z,-3.69
2023-02-09T14:41:19.719Z,-3.70
2023-02-09T14:43:27.809Z,-3.71
2023-02-09T14:45:35.175Z,-3.72
2023-02-09T14:47:39.692Z,-3.70
2023-02-09T14:49:42.349Z,-3.74
2023-02-09T14:51:45.940Z,-3.80
2023-02-09T14:53:50.177Z,-3.83
2023-02-09T14:55:55.178Z,-3.85
2023-02-09T14:57:57.758Z,-3.85
2023-02-09T15:00:00.399Z,-3.84
2023-02-09T15:02:26.136Z,-3.84
2023-02-09T15:04:28.740Z,-3.82
2023-02-09T15:06:34.930Z,-3.83
2023-02-09T15:08:39.175Z,-3.90
2023-02-09T15:10:55.419Z,-3.96
2023-02-09T15:12:59.210Z,-3.99
2023-02-09T15:15:02.448Z,-4.07
2023-02-09T15:17:14.043Z,-4.06
2023-02-09T15:19:21.533Z,-4.09
2023-02-09T15:21:24.291Z,-4.12
2023-02-09T15:23:26.940Z,-4.12
2023-02-09T15:25:29.849Z,-4.14
2023-02-09T15:27:51.382Z,-4.21
2023-02-09T15:29:57.907Z,-4.25
2023-02-09T15:32:01.659Z,-4.26
2023-02-09T15:34:05.768Z,-4.29
2023-02-09T15:36:14.495Z,-4.27
2023-02-09T15:38:18.484Z,-4.26
2023-02-09T15:40:52.968Z,-4.28
2023-02-09T15:43:14.004Z,-4.35
2023-02-09T15:45:38.283Z,-4.31
2023-02-09T15:47:49.814Z,-4.30
2023-02-09T15:49:52.498Z,-4.29
2023-02-09T15:51:55.274Z,-4.30
2023-02-09T15:53:59.642Z,-4.34
2023-02-09T15:56:02.524Z,-4.37
2023-02-09T15:58:19.421Z,-4.38
2023-02-09T16:00:27.694Z,-4.40
2023-02-09T16:02:30.407Z,-4.41
2023-02-09T16:04:33.049Z,-4.42
2023-02-09T16:06:35.990Z,-4.41
2023-02-09T16:08:38.853Z,-4.40
2023-02-09T16:10:41.469Z,-4.42
2023-02-09T16:12:44.109Z,-4.43
2023-02-09T16:14:46.811Z,-4.43
2023-02-09T16:16:49.927Z,-4.40
2023-02-09T16:18:52.599Z,-4.51
2023-02-09T16:20:55.317Z,-4.51
2023-02-09T16:23:11.779Z,-4.51
2023-02-09T16:25:24.069Z,-4.50
2023-02-09T16:27:28.731Z,-4.46
2023-02-09T16:29:31.355Z,-4.47
2023-02-09T16:31:34.036Z,-4.52
2023-02-09T16:33:38.915Z,-4.48
2023-02-09T16:35:42.148Z,-4.48
2023-02-09T16:37:46.920Z,-4.50
2023-02-09T16:39:50.172Z,-4.49
2023-02-09T16:41:54.298Z,-4.46
2023-02-09T16:43:57.092Z,-4.50
2023-02-09T16:46:04.494Z,-4.52
2023-02-09T16:48:15.577Z,-4.54
2023-02-09T16:50:35.775Z,-4.53
2023-02-09T16:52:39.431Z,-4.52
2023-02-09T16:54:50.444Z,-4.51
2023-02-09T16:56:54.595Z,-4.54
2023-02-09T16:58:57.477Z,-4.54
2023-02-09T17:01:01.820Z,-4.53
2023-02-09T17:03:32.149Z,-4.53
2023-02-09T17:05:37.298Z,-4.52
2023-02-09T17:07:53.616Z,-4.52
2023-02-09T17:09:57.684Z,-4.53
2023-02-09T17:12:00.283Z,-4.58
2023-02-09T17:14:02.838Z,-4.58
2023-02-09T17:16:07.171Z,-4.60
2023-02-09T17:18:16.931Z,-4.63
2023-02-09T17:20:23.259Z,-4.62
2023-02-09T17:22:25.959Z,-4.68
2023-02-09T17:24:28.493Z,-4.69
2023-02-09T17:26:31.714Z,-4.65
2023-02-09T17:28:34.660Z,-4.67
2023-02-09T17:30:37.975Z,-4.65
2023-02-09T17:32:40.743Z,-4.67
2023-02-09T17:34:43.434Z,-4.67
2023-02-09T17:36:46.256Z,-4.70
2023-02-09T17:38:49.006Z,-4.68
2023-02-09T17:40:53.406Z,-4.66
2023-02-09T17:42:56.640Z,-4.68
2023-02-09T17:44:59.290Z,-4.67
2023-02-09T17:47:03.556Z,-4.69
2023-02-09T17:49:06.217Z,-4.78
2023-02-09T17:51:30.561Z,-4.82
2023-02-09T17:53:35.114Z,-4.81
2023-02-09T17:55:37.689Z,-4.84
2023-02-09T17:57:41.736Z,-4.84
2023-02-09T17:59:44.491Z,-4.91
2023-02-09T18:01:50.490Z,-4.90
2023-02-09T18:03:57.972Z,-4.93
2023-02-09T18:06:03.185Z,-4.89
2023-02-09T18:08:05.858Z,-4.87
2023-02-09T18:10:08.471Z,-4.84
2023-02-09T18:12:19.885Z,-4.85
2023-02-09T18:14:24.317Z,-4.89
2023-02-09T18:16:27.509Z,-4.91
2023-02-09T18:18:30.268Z,-4.88
2023-02-09T18:20:34.561Z,-4.90
2023-02-09T18:22:37.172Z,-4.86
2023-02-09T18:24:39.912Z,-4.91
2023-02-09T18:26:43.234Z,-4.90
2023-02-09T18:28:45.960Z,-4.93
2023-02-09T18:30:48.644Z,-4.97
2023-02-09T18:32:51.520Z,-4.94
2023-02-09T18:34:54.175Z,-4.93
2023-02-09T18:36:57.327Z,-4.91
2023-02-09T18:39:00.226Z,-4.86
2023-02-09T18:41:02.945Z,-4.85
2023-02-09T18:43:07.192Z,-4.86
2023-02-09T18:45:13.112Z,-4.91
2023-02-09T18:47:16.117Z,-4.86
2023-02-09T18:49:19.044Z,-4.86
2023-02-09T18:51:22.151Z,-4.82
2023-02-09T18:53:24.786Z,-4.82
2023-02-09T18:55:30.896Z,-4.82
2023-02-09T18:57:33.536Z,-4.85
2023-02-09T18:59:36.417Z,-4.85
2023-02-09T19:01:39.955Z,-4.87
2023-02-09T19:03:42.800Z,-4.83
2023-02-09T19:05:45.604Z,-4.88
2023-02-09T19:07:49.433Z,-4.88
2023-02-09T19:09:55.072Z,-4.90
2023-02-09T19:11:57.795Z,-4.86
2023-02-09T19:14:18.895Z,-4.84
2023-02-09T19:16:21.599Z,-4.83
2023-02-09T19:18:24.165Z,-4.84
2023-02-09T19:20:29.363Z,-4.88
2023-02-09T19:22:32.483Z,-4.92
2023-02-09T19:24:35.199Z,-4.92
2023-02-09T19:26:37.902Z,-4.89
2023-02-09T19:28:40.584Z,-4.93
2023-02-09T19:30:43.557Z,-4.94
2023-02-09T19:32:46.172Z,-4.95
2023-02-09T19:34:50.037Z,-4.94
2023-02-09T19:36:52.937Z,-4.95
2023-02-09T19:38:56.528Z,-4.94
2023-02-09T19:41:10.388Z,-5.02
2023-02-09T19:43:13.581Z,-5.03
2023-02-09T19:45:16.506Z,-4.99
2023-02-09T19:47:25.782Z,-5.03
2023-02-09T19:49:29.029Z,-5.07
2023-02-09T19:51:31.602Z,-5.11
2023-02-09T19:53:34.815Z,-5.16
2023-02-09T19:55:37.364Z,-5.19
2023-02-09T19:57:40.028Z,-5.15
2023-02-09T19:59:42.579Z,-5.13
2023-02-09T20:01:45.244Z,-5.12
2023-02-09T20:03:49.685Z,-5.13
2023-02-09T20:05:52.420Z,-5.07
2023-02-09T20:07:55.062Z,-5.03
2023-02-09T20:09:58.280Z,-5.02
2023-02-09T20:12:01.063Z,-5.02
2023-02-09T20:14:05.631Z,-5.00
2023-02-09T20:16:10.150Z,-4.99
2023-02-09T20:18:14.869Z,-4.97
2023-02-09T20:20:19.926Z,-5.00
2023-02-09T20:22:22.616Z,-4.96
2023-02-09T20:24:25.431Z,-5.00
2023-02-09T20:26:30.475Z,-5.04
2023-02-09T20:28:33.127Z,-5.05
2023-02-09T20:30:35.889Z,-4.99
2023-02-09T20:32:38.699Z,-4.97
2023-02-09T20:34:42.161Z,-4.94
2023-02-09T20:36:46.944Z,-4.89
2023-02-09T20:38:49.579Z,-4.90
2023-02-09T20:40:52.262Z,-4.88
2023-02-09T20:43:13.465Z,-4.87
2023-02-09T20:45:36.174Z,-4.87
2023-02-09T20:47:38.780Z,-4.91
2023-02-09T20:49:41.402Z,-4.90
2023-02-09T20:51:45.995Z,-4.90
2023-02-09T20:53:48.645Z,-4.91
2023-02-09T20:55:51.303Z,-4.93
2023-02-09T20:57:53.905Z,-4.93
2023-02-09T21:00:01.009Z,-5.05
2023-02-09T21:02:03.790Z,-5.00
2023-02-09T21:04:07.525Z,-4.99
2023-02-09T21:06:10.290Z,-4.97
2023-02-09T21:08:12.904Z,-4.94
2023-02-09T21:10:16.229Z,-4.94
2023-02-09T21:12:19.597Z,-4.95
2023-02-09T21:14:32.323Z,-4.96
2023-02-09T21:16:42.790Z,-4.98
2023-02-09T21:18:45.976Z,-5.01
2023-02-09T21:20:49.311Z,-4.93
2023-02-09T21:22:52.239Z,-4.91
2023-02-09T21:24:54.813Z,-4.91
2023-02-09T21:26:57.499Z,-4.93
2023-02-09T21:29:00.112Z,-4.93
2023-02-09T21:31:02.954Z,-4.90
2023-02-09T21:33:05.608Z,-4.93
2023-02-09T21:35:10.491Z,-4.91
2023-02-09T21:37:14.155Z,-4.90
2023-02-09T21:39:16.811Z,-4.91
2023-02-09T21:41:40.580Z,-4.89
2023-02-09T21:43:43.447Z,-4.91
2023-02-09T21:45:46.089Z,-4.90
2023-02-09T21:47:48.733Z,-4.89
2023-02-09T21:49:51.479Z,-4.90
2023-02-09T21:51:54.127Z,-4.95
2023-02-09T21:53:57.430Z,-4.91
2023-02-09T21:56:00.058Z,-4.94
2023-02-09T21:58:02.690Z,-4.91
2023-02-09T22:00:09.100Z,-4.92
2023-02-09T22:02:16.339Z,-4.89
2023-02-09T22:04:19.006Z,-4.85
2023-02-09T22:06:21.553Z,-4.84
2023-02-09T22:08:24.212Z,-4.83
2023-02-09T22:10:26.776Z,-4.80
2023-02-09T22:12:29.530Z,-4.80
2023-02-09T22:14:32.744Z,-4.83
2023-02-09T22:16:35.380Z,-4.83
2023-02-09T22:18:38.034Z,-4.83
2023-02-09T22:20:44.446Z,-4.86
2023-02-09T22:22:47.203Z,-4.84
2023-02-09T22:24:49.842Z,-4.84
2023-02-09T22:26:52.739Z,-4.81
2023-02-09T22:28:55.347Z,-4.81
2023-02-09T22:30:57.998Z,-4.80
2023-02-09T22:33:01.714Z,-4.81
2023-02-09T22:35:04.478Z,-4.81
2023-02-09T22:37:07.212Z,-4.78
2023-02-09T22:39:10.206Z,-4.87
2023-02-09T22:41:24.299Z,-4.83
2023-02-09T22:43:27.279Z,-4.81
2023-02-09T22:45:29.933Z,-4.79
2023-02-09T22:47:33.266Z,-4.77
2023-02-09T22:49:35.848Z,-4.77
2023-02-09T22:51:38.490Z,-4.85
2023-02-09T22:53:41.129Z,-4.76
2023-02-09T22:55:46.530Z,-4.80
2023-02-09T22:57:49.269Z,-4.79
2023-02-09T22:59:51.970Z,-4.84
2023-02-09T23:01:54.705Z,-4.77
2023-02-09T23:03:57.993Z,-4.81
2023-02-09T23:06:05.630Z,-4.75
2023-02-09T23:08:08.223Z,-4.76
2023-02-09T23:10:10.921Z,-4.76
2023-02-09T23:12:13.645Z,-4.81
2023-02-09T23:14:16.444Z,-4.80
2023-02-09T23:16:22.172Z,-4.80
2023-02-09T23:18:24.799Z,-4.85
2023-02-09T23:20:27.417Z,-4.77
2023-02-09T23:22:30.008Z,-4.76
2023-02-09T23:24:32.938Z,-4.77
2023-02-09T23:26:36.120Z,-4.79
2023-02-09T23:28:38.803Z,-4.77
2023-02-09T23:30:41.490Z,-4.76
2023-02-09T23:32:44.146Z,-4.76
2023-02-09T23:34:46.781Z,-4.72
2023-02-09T23:36:49.431Z,-4.75
2023-02-09T23:38:54.909Z,-4.78
2023-02-09T23:40:57.665Z,-4.75
2023-02-09T23:43:00.482Z,-4.74
2023-02-09T23:45:03.272Z,-4.74
2023-02-09T23:47:07.374Z,-4.74
2023-02-09T23:49:10.308Z,-4.73
2023-02-09T23:51:19.352Z,-4.70
2023-02-09T23:53:22.038Z,-4.72
2023-02-09T23:55:24.665Z,-4.76
2023-02-09T23:57:27.266Z,-4.76
2023-02-09T23:59:29.967Z,-4.73
